ECV weather

Cuatro Vientos Airport
Madrid, Madrid, Spain

Public forecast

Using degrees Celsius for public forecast. Weather courtesy of forecast.io.

METAR (pilot weather report)

Report is more than 6 hours old.

Closest report is Getafe Air Base, 5.4 nm (10.0 km) SSE. Retrieved 2019/05/23 22:00 UTC (6 hours ago):

LEGT 232200Z 29006KT 270V340 CAVOK 22/04 Q1015

TAF (pilot weather forecast)

Forecast is more than 12 hours old.

Closest forecast is Getafe Air Base, 5.4 nm (10.0 km) SSE. Retrieved 2018/03/28 12:33 UTC (1 year ago):

TAF LEGT 281100Z 2812/2824 24010KT CAVOK PROB40 TEMPO 2814/2818 27015G25KT TEMPO 2820/2824 28008KT